sensor_id;sensor_type;location;lat;lon;timestamp;temperature;humidity
51637;DHT22;37713;53.254;6.460;2023-05-07T00:00:40;12.20;99.90
51637;DHT22;37713;53.254;6.460;2023-05-07T00:03:07;12.10;99.90
51637;DHT22;37713;53.254;6.460;2023-05-07T00:05:33;12.10;99.90
51637;DHT22;37713;53.254;6.460;2023-05-07T00:07:59;12.10;99.90
51637;DHT22;37713;53.254;6.460;2023-05-07T00:10:26;12.10;99.90
51637;DHT22;37713;53.254;6.460;2023-05-07T00:12:51;12.10;99.90
51637;DHT22;37713;53.254;6.460;2023-05-07T00:15:17;12.10;99.90
51637;DHT22;37713;53.254;6.460;2023-05-07T00:17:43;12.00;99.90
51637;DHT22;37713;53.254;6.460;2023-05-07T00:20:09;12.00;99.90
51637;DHT22;37713;53.254;6.460;2023-05-07T00:22:35;12.00;99.90
51637;DHT22;37713;53.254;6.460;2023-05-07T00:25:01;11.90;99.90
51637;DHT22;37713;53.254;6.460;2023-05-07T00:27:26;11.90;99.90
51637;DHT22;37713;53.254;6.460;2023-05-07T00:29:52;11.90;99.90
51637;DHT22;37713;53.254;6.460;2023-05-07T00:32:18;11.90;99.90
51637;DHT22;37713;53.254;6.460;2023-05-07T00:34:44;11.90;99.90
51637;DHT22;37713;53.254;6.460;2023-05-07T00:37:09;11.90;99.90
51637;DHT22;37713;53.254;6.460;2023-05-07T00:39:35;11.90;99.90
51637;DHT22;37713;53.254;6.460;2023-05-07T00:42:02;11.90;99.90
51637;DHT22;37713;53.254;6.460;2023-05-07T00:44:29;11.90;99.90
51637;DHT22;37713;53.254;6.460;2023-05-07T00:46:58;11.80;99.90
51637;DHT22;37713;53.254;6.460;2023-05-07T00:49:39;11.80;99.90
51637;DHT22;37713;53.254;6.460;2023-05-07T00:52:07;11.80;99.90
51637;DHT22;37713;53.254;6.460;2023-05-07T00:54:34;11.80;99.90
51637;DHT22;37713;53.254;6.460;2023-05-07T00:57:02;11.70;99.90
51637;DHT22;37713;53.254;6.460;2023-05-07T00:59:30;11.70;99.90
51637;DHT22;37713;53.254;6.460;2023-05-07T01:01:56;11.70;99.90
51637;DHT22;37713;53.254;6.460;2023-05-07T01:04:21;11.70;99.90
51637;DHT22;37713;53.254;6.460;2023-05-07T01:06:47;11.70;99.90
51637;DHT22;37713;53.254;6.460;2023-05-07T01:09:13;11.70;99.90
51637;DHT22;37713;53.254;6.460;2023-05-07T01:11:40;11.70;99.90
51637;DHT22;37713;53.254;6.460;2023-05-07T01:14:06;11.70;99.90
51637;DHT22;37713;53.254;6.460;2023-05-07T01:16:32;11.70;99.90
51637;DHT22;37713;53.254;6.460;2023-05-07T01:18:58;11.70;99.90
51637;DHT22;37713;53.254;6.460;2023-05-07T01:21:26;11.70;99.90
51637;DHT22;37713;53.254;6.460;2023-05-07T01:23:57;11.70;99.90
51637;DHT22;37713;53.254;6.460;2023-05-07T01:26:23;11.70;99.90
51637;DHT22;37713;53.254;6.460;2023-05-07T01:28:49;11.70;99.90
51637;DHT22;37713;53.254;6.460;2023-05-07T01:31:15;11.70;99.90
51637;DHT22;37713;53.254;6.460;2023-05-07T01:33:44;11.60;99.90
51637;DHT22;37713;53.254;6.460;2023-05-07T01:36:12;11.60;99.90
51637;DHT22;37713;53.254;6.460;2023-05-07T01:38:39;11.60;99.90
51637;DHT22;37713;53.254;6.460;2023-05-07T01:41:06;11.60;99.90
51637;DHT22;37713;53.254;6.460;2023-05-07T01:43:33;11.60;99.90
51637;DHT22;37713;53.254;6.460;2023-05-07T01:46:00;11.60;99.90
51637;DHT22;37713;53.254;6.460;2023-05-07T01:48:27;11.60;99.90
51637;DHT22;37713;53.254;6.460;2023-05-07T01:50:55;11.60;99.90
51637;DHT22;37713;53.254;6.460;2023-05-07T01:53:21;11.60;99.90
51637;DHT22;37713;53.254;6.460;2023-05-07T01:55:46;11.60;99.90
51637;DHT22;37713;53.254;6.460;2023-05-07T01:58:12;11.60;99.90
51637;DHT22;37713;53.254;6.460;2023-05-07T02:00:39;11.50;99.90
51637;DHT22;37713;53.254;6.460;2023-05-07T02:03:04;11.60;99.90
51637;DHT22;37713;53.254;6.460;2023-05-07T02:05:31;11.50;99.90
51637;DHT22;37713;53.254;6.460;2023-05-07T02:07:56;11.50;99.90
51637;DHT22;37713;53.254;6.460;2023-05-07T02:10:22;11.50;99.90
51637;DHT22;37713;53.254;6.460;2023-05-07T02:12:48;11.50;99.90
51637;DHT22;37713;53.254;6.460;2023-05-07T02:15:13;11.50;99.90
51637;DHT22;37713;53.254;6.460;2023-05-07T02:18:05;11.50;99.90
51637;DHT22;37713;53.254;6.460;2023-05-07T02:20:32;11.40;99.90
51637;DHT22;37713;53.254;6.460;2023-05-07T02:22:57;11.40;99.90
51637;DHT22;37713;53.254;6.460;2023-05-07T02:25:23;11.40;99.90
51637;DHT22;37713;53.254;6.460;2023-05-07T02:27:49;11.40;99.90
51637;DHT22;37713;53.254;6.460;2023-05-07T02:30:15;11.40;99.90
51637;DHT22;37713;53.254;6.460;2023-05-07T02:32:41;11.40;99.90
51637;DHT22;37713;53.254;6.460;2023-05-07T02:35:07;11.40;99.90
51637;DHT22;37713;53.254;6.460;2023-05-07T02:37:33;11.40;99.90
51637;DHT22;37713;53.254;6.460;2023-05-07T02:39:59;11.40;99.90
51637;DHT22;37713;53.254;6.460;2023-05-07T02:42:24;11.40;99.90
51637;DHT22;37713;53.254;6.460;2023-05-07T02:44:50;11.40;99.90
51637;DHT22;37713;53.254;6.460;2023-05-07T02:47:16;11.40;99.90
51637;DHT22;37713;53.254;6.460;2023-05-07T02:49:42;11.40;99.90
51637;DHT22;37713;53.254;6.460;2023-05-07T02:52:08;11.40;99.90
51637;DHT22;37713;53.254;6.460;2023-05-07T02:54:33;11.40;99.90
51637;DHT22;37713;53.254;6.460;2023-05-07T02:56:59;11.40;99.90
51637;DHT22;37713;53.254;6.460;2023-05-07T02:59:26;11.40;99.90
51637;DHT22;37713;53.254;6.460;2023-05-07T03:01:52;11.40;99.90
51637;DHT22;37713;53.254;6.460;2023-05-07T03:04:18;11.40;99.90
51637;DHT22;37713;53.254;6.460;2023-05-07T03:06:43;11.40;99.90
51637;DHT22;37713;53.254;6.460;2023-05-07T03:09:09;11.30;99.90
51637;DHT22;37713;53.254;6.460;2023-05-07T03:11:35;11.30;99.90
51637;DHT22;37713;53.254;6.460;2023-05-07T03:14:01;11.30;99.90
51637;DHT22;37713;53.254;6.460;2023-05-07T03:16:27;11.30;99.90
51637;DHT22;37713;53.254;6.460;2023-05-07T03:18:53;11.40;99.90
51637;DHT22;37713;53.254;6.460;2023-05-07T03:21:19;11.30;99.90
51637;DHT22;37713;53.254;6.460;2023-05-07T03:23:45;11.30;99.90
51637;DHT22;37713;53.254;6.460;2023-05-07T03:26:11;11.30;99.90
51637;DHT22;37713;53.254;6.460;2023-05-07T03:28:37;11.30;99.90
51637;DHT22;37713;53.254;6.460;2023-05-07T03:31:03;11.30;99.90
51637;DHT22;37713;53.254;6.460;2023-05-07T03:33:28;11.30;99.90
51637;DHT22;37713;53.254;6.460;2023-05-07T03:35:54;11.30;99.90
51637;DHT22;37713;53.254;6.460;2023-05-07T03:38:20;11.30;99.90
51637;DHT22;37713;53.254;6.460;2023-05-07T03:40:46;11.30;99.90
51637;DHT22;37713;53.254;6.460;2023-05-07T03:43:12;11.20;99.90
51637;DHT22;37713;53.254;6.460;2023-05-07T03:45:37;11.30;99.90
51637;DHT22;37713;53.254;6.460;2023-05-07T03:48:03;11.30;99.90
51637;DHT22;37713;53.254;6.460;2023-05-07T03:50:29;11.20;99.90
51637;DHT22;37713;53.254;6.460;2023-05-07T03:52:55;11.20;99.90
51637;DHT22;37713;53.254;6.460;2023-05-07T03:55:21;11.20;99.90
51637;DHT22;37713;53.254;6.460;2023-05-07T03:57:46;11.20;99.90
51637;DHT22;37713;53.254;6.460;2023-05-07T04:00:13;11.20;99.90
51637;DHT22;37713;53.254;6.460;2023-05-07T04:02:38;11.20;99.90
51637;DHT22;37713;53.254;6.460;2023-05-07T04:05:04;11.20;99.90
51637;DHT22;37713;53.254;6.460;2023-05-07T04:07:30;11.20;99.90
51637;DHT22;37713;53.254;6.460;2023-05-07T04:09:56;11.10;99.90
51637;DHT22;37713;53.254;6.460;2023-05-07T04:12:22;11.10;99.90
51637;DHT22;37713;53.254;6.460;2023-05-07T04:14:48;11.10;99.90
51637;DHT22;37713;53.254;6.460;2023-05-07T04:17:13;11.10;99.90
51637;DHT22;37713;53.254;6.460;2023-05-07T04:19:39;11.10;99.90
51637;DHT22;37713;53.254;6.460;2023-05-07T04:22:05;11.10;99.90
51637;DHT22;37713;53.254;6.460;2023-05-07T04:24:34;11.10;99.90
51637;DHT22;37713;53.254;6.460;2023-05-07T04:26:59;11.10;99.90
51637;DHT22;37713;53.254;6.460;2023-05-07T04:29:25;11.10;99.90
51637;DHT22;37713;53.254;6.460;2023-05-07T04:31:51;11.10;99.90
51637;DHT22;37713;53.254;6.460;2023-05-07T04:34:18;11.10;99.90
51637;DHT22;37713;53.254;6.460;2023-05-07T04:36:44;11.10;99.90
51637;DHT22;37713;53.254;6.460;2023-05-07T04:39:10;11.10;99.90
51637;DHT22;37713;53.254;6.460;2023-05-07T04:41:36;11.10;99.90
51637;DHT22;37713;53.254;6.460;2023-05-07T04:44:02;11.10;99.90
51637;DHT22;37713;53.254;6.460;2023-05-07T04:46:29;11.10;99.90
51637;DHT22;37713;53.254;6.460;2023-05-07T04:48:55;11.00;99.90
51637;DHT22;37713;53.254;6.460;2023-05-07T04:51:21;11.00;99.90
51637;DHT22;37713;53.254;6.460;2023-05-07T04:53:47;11.00;99.90
51637;DHT22;37713;53.254;6.460;2023-05-07T04:56:13;11.00;99.90
51637;DHT22;37713;53.254;6.460;2023-05-07T04:58:38;11.00;99.90
51637;DHT22;37713;53.254;6.460;2023-05-07T05:01:05;11.00;99.90
51637;DHT22;37713;53.254;6.460;2023-05-07T05:03:31;10.90;99.90
51637;DHT22;37713;53.254;6.460;2023-05-07T05:05:57;11.00;99.90
51637;DHT22;37713;53.254;6.460;2023-05-07T05:08:25;11.00;99.90
51637;DHT22;37713;53.254;6.460;2023-05-07T05:10:51;11.00;99.90
51637;DHT22;37713;53.254;6.460;2023-05-07T05:13:17;11.00;99.90
51637;DHT22;37713;53.254;6.460;2023-05-07T05:15:43;10.90;99.90
51637;DHT22;37713;53.254;6.460;2023-05-07T05:18:09;11.00;99.90
51637;DHT22;37713;53.254;6.460;2023-05-07T05:20:34;11.00;99.90
51637;DHT22;37713;53.254;6.460;2023-05-07T05:23:00;11.00;99.90
51637;DHT22;37713;53.254;6.460;2023-05-07T05:25:26;10.90;99.90
51637;DHT22;37713;53.254;6.460;2023-05-07T05:27:53;11.00;99.90
51637;DHT22;37713;53.254;6.460;2023-05-07T05:30:18;11.00;99.90
51637;DHT22;37713;53.254;6.460;2023-05-07T05:32:44;11.00;99.90
51637;DHT22;37713;53.254;6.460;2023-05-07T05:35:10;10.90;99.90
51637;DHT22;37713;53.254;6.460;2023-05-07T05:37:36;11.00;99.90
51637;DHT22;37713;53.254;6.460;2023-05-07T05:40:02;10.90;99.90
51637;DHT22;37713;53.254;6.460;2023-05-07T05:42:29;10.90;99.90
51637;DHT22;37713;53.254;6.460;2023-05-07T05:44:54;10.90;99.90
51637;DHT22;37713;53.254;6.460;2023-05-07T05:47:20;10.90;99.90
51637;DHT22;37713;53.254;6.460;2023-05-07T05:49:46;10.90;99.90
51637;DHT22;37713;53.254;6.460;2023-05-07T05:52:12;11.00;99.90
51637;DHT22;37713;53.254;6.460;2023-05-07T05:54:39;10.90;99.90
51637;DHT22;37713;53.254;6.460;2023-05-07T05:57:05;11.00;99.90
51637;DHT22;37713;53.254;6.460;2023-05-07T05:59:31;11.00;99.90
51637;DHT22;37713;53.254;6.460;2023-05-07T06:01:57;11.00;99.90
51637;DHT22;37713;53.254;6.460;2023-05-07T06:04:23;11.00;99.90
51637;DHT22;37713;53.254;6.460;2023-05-07T06:06:48;11.10;99.90
51637;DHT22;37713;53.254;6.460;2023-05-07T06:09:14;11.10;99.90
51637;DHT22;37713;53.254;6.460;2023-05-07T06:11:40;11.10;99.90
51637;DHT22;37713;53.254;6.460;2023-05-07T06:14:06;11.10;99.90
51637;DHT22;37713;53.254;6.460;2023-05-07T06:16:32;11.10;99.90
51637;DHT22;37713;53.254;6.460;2023-05-07T06:18:58;11.20;99.90
51637;DHT22;37713;53.254;6.460;2023-05-07T06:21:24;11.20;99.90
51637;DHT22;37713;53.254;6.460;2023-05-07T06:23:50;11.20;99.90
51637;DHT22;37713;53.254;6.460;2023-05-07T06:26:17;11.30;99.90
51637;DHT22;37713;53.254;6.460;2023-05-07T06:28:43;11.30;99.90
51637;DHT22;37713;53.254;6.460;2023-05-07T06:31:19;11.40;99.90
51637;DHT22;37713;53.254;6.460;2023-05-07T06:33:49;11.40;99.90
51637;DHT22;37713;53.254;6.460;2023-05-07T06:36:15;11.50;99.90
51637;DHT22;37713;53.254;6.460;2023-05-07T06:38:41;11.60;99.90
51637;DHT22;37713;53.254;6.460;2023-05-07T06:41:07;11.60;99.90
51637;DHT22;37713;53.254;6.460;2023-05-07T06:43:33;11.60;99.90
51637;DHT22;37713;53.254;6.460;2023-05-07T06:45:59;11.60;99.90
51637;DHT22;37713;53.254;6.460;2023-05-07T06:48:25;11.60;99.90
51637;DHT22;37713;53.254;6.460;2023-05-07T06:50:50;11.60;99.90
51637;DHT22;37713;53.254;6.460;2023-05-07T06:53:16;11.60;99.90
51637;DHT22;37713;53.254;6.460;2023-05-07T06:55:42;11.70;99.90
51637;DHT22;37713;53.254;6.460;2023-05-07T06:58:08;11.80;99.90
51637;DHT22;37713;53.254;6.460;2023-05-07T07:00:34;11.80;99.90
51637;DHT22;37713;53.254;6.460;2023-05-07T07:03:00;11.80;99.90
51637;DHT22;37713;53.254;6.460;2023-05-07T07:05:26;11.80;99.90
51637;DHT22;37713;53.254;6.460;2023-05-07T07:07:52;11.80;99.90
51637;DHT22;37713;53.254;6.460;2023-05-07T07:10:21;11.80;99.90
51637;DHT22;37713;53.254;6.460;2023-05-07T07:12:47;11.80;99.90
51637;DHT22;37713;53.254;6.460;2023-05-07T07:15:16;11.80;99.90
51637;DHT22;37713;53.254;6.460;2023-05-07T07:17:42;11.70;99.90
51637;DHT22;37713;53.254;6.460;2023-05-07T07:20:08;11.70;99.90
51637;DHT22;37713;53.254;6.460;2023-05-07T07:22:34;11.70;99.90
51637;DHT22;37713;53.254;6.460;2023-05-07T07:25:00;11.60;99.90
51637;DHT22;37713;53.254;6.460;2023-05-07T07:27:26;11.60;99.90
51637;DHT22;37713;53.254;6.460;2023-05-07T07:29:51;11.70;99.90
51637;DHT22;37713;53.254;6.460;2023-05-07T07:32:17;11.60;99.90
51637;DHT22;37713;53.254;6.460;2023-05-07T07:34:43;11.60;99.90
51637;DHT22;37713;53.254;6.460;2023-05-07T07:37:09;11.60;99.90
51637;DHT22;37713;53.254;6.460;2023-05-07T07:39:35;11.60;99.90
51637;DHT22;37713;53.254;6.460;2023-05-07T07:42:03;11.60;99.90
51637;DHT22;37713;53.254;6.460;2023-05-07T07:44:29;11.60;99.90
51637;DHT22;37713;53.254;6.460;2023-05-07T07:46:54;11.60;99.90
51637;DHT22;37713;53.254;6.460;2023-05-07T07:49:20;11.60;99.90
51637;DHT22;37713;53.254;6.460;2023-05-07T07:51:46;11.60;99.90
51637;DHT22;37713;53.254;6.460;2023-05-07T07:54:12;11.50;99.90
51637;DHT22;37713;53.254;6.460;2023-05-07T07:56:38;11.50;99.90
51637;DHT22;37713;53.254;6.460;2023-05-07T07:59:04;11.50;99.90
51637;DHT22;37713;53.254;6.460;2023-05-07T08:01:30;11.60;99.90
51637;DHT22;37713;53.254;6.460;2023-05-07T08:03:56;11.50;99.90
51637;DHT22;37713;53.254;6.460;2023-05-07T08:06:24;11.50;99.90
51637;DHT22;37713;53.254;6.460;2023-05-07T08:08:51;11.50;99.90
51637;DHT22;37713;53.254;6.460;2023-05-07T08:11:17;11.50;99.90
51637;DHT22;37713;53.254;6.460;2023-05-07T08:13:43;11.60;99.90
51637;DHT22;37713;53.254;6.460;2023-05-07T08:16:10;11.60;99.90
51637;DHT22;37713;53.254;6.460;2023-05-07T08:18:36;11.70;99.90
51637;DHT22;37713;53.254;6.460;2023-05-07T08:21:02;11.70;99.90
51637;DHT22;37713;53.254;6.460;2023-05-07T08:23:28;11.80;99.90
51637;DHT22;37713;53.254;6.460;2023-05-07T08:25:53;11.90;99.90
51637;DHT22;37713;53.254;6.460;2023-05-07T08:28:19;12.00;99.90
51637;DHT22;37713;53.254;6.460;2023-05-07T08:30:47;12.20;99.90
51637;DHT22;37713;53.254;6.460;2023-05-07T08:33:12;12.30;99.90
51637;DHT22;37713;53.254;6.460;2023-05-07T08:35:38;12.50;99.90
51637;DHT22;37713;53.254;6.460;2023-05-07T08:38:04;12.70;99.90
51637;DHT22;37713;53.254;6.460;2023-05-07T08:40:36;13.00;99.90
51637;DHT22;37713;53.254;6.460;2023-05-07T08:43:03;13.10;99.90
51637;DHT22;37713;53.254;6.460;2023-05-07T08:45:30;13.20;99.90
51637;DHT22;37713;53.254;6.460;2023-05-07T08:48:09;13.20;99.90
51637;DHT22;37713;53.254;6.460;2023-05-07T08:50:36;13.30;99.90
51637;DHT22;37713;53.254;6.460;2023-05-07T08:53:05;13.40;99.90
51637;DHT22;37713;53.254;6.460;2023-05-07T08:55:31;13.50;99.90
51637;DHT22;37713;53.254;6.460;2023-05-07T08:57:59;13.60;99.90
51637;DHT22;37713;53.254;6.460;2023-05-07T09:00:25;13.70;99.90
51637;DHT22;37713;53.254;6.460;2023-05-07T09:02:52;13.80;99.90
51637;DHT22;37713;53.254;6.460;2023-05-07T09:05:19;13.90;99.90
51637;DHT22;37713;53.254;6.460;2023-05-07T09:07:45;13.80;99.90
51637;DHT22;37713;53.254;6.460;2023-05-07T09:10:12;13.90;99.90
51637;DHT22;37713;53.254;6.460;2023-05-07T09:12:39;13.90;99.90
51637;DHT22;37713;53.254;6.460;2023-05-07T09:15:05;13.90;99.90
51637;DHT22;37713;53.254;6.460;2023-05-07T09:17:32;14.00;99.90
51637;DHT22;37713;53.254;6.460;2023-05-07T09:20:07;14.00;99.90
51637;DHT22;37713;53.254;6.460;2023-05-07T09:22:36;14.10;99.90
51637;DHT22;37713;53.254;6.460;2023-05-07T09:25:02;14.20;99.90
51637;DHT22;37713;53.254;6.460;2023-05-07T09:27:28;14.40;99.90
51637;DHT22;37713;53.254;6.460;2023-05-07T09:29:55;14.40;99.90
51637;DHT22;37713;53.254;6.460;2023-05-07T09:32:21;14.50;99.90
51637;DHT22;37713;53.254;6.460;2023-05-07T09:34:46;14.70;99.90
51637;DHT22;37713;53.254;6.460;2023-05-07T09:37:13;14.70;99.90
51637;DHT22;37713;53.254;6.460;2023-05-07T09:39:47;14.90;99.90
51637;DHT22;37713;53.254;6.460;2023-05-07T09:42:13;15.00;99.90
51637;DHT22;37713;53.254;6.460;2023-05-07T09:44:47;15.20;99.90
51637;DHT22;37713;53.254;6.460;2023-05-07T09:47:18;15.20;99.90
51637;DHT22;37713;53.254;6.460;2023-05-07T09:49:47;15.30;99.90
51637;DHT22;37713;53.254;6.460;2023-05-07T09:52:13;15.40;99.90
51637;DHT22;37713;53.254;6.460;2023-05-07T09:54:40;15.50;99.90
51637;DHT22;37713;53.254;6.460;2023-05-07T09:57:11;15.60;99.90
51637;DHT22;37713;53.254;6.460;2023-05-07T09:59:38;15.60;99.90
51637;DHT22;37713;53.254;6.460;2023-05-07T10:02:04;15.60;99.90
51637;DHT22;37713;53.254;6.460;2023-05-07T10:04:31;15.60;99.90
51637;DHT22;37713;53.254;6.460;2023-05-07T10:06:58;15.70;99.90
51637;DHT22;37713;53.254;6.460;2023-05-07T10:09:26;15.90;99.90
51637;DHT22;37713;53.254;6.460;2023-05-07T10:11:52;15.90;99.90
51637;DHT22;37713;53.254;6.460;2023-05-07T10:14:21;16.10;99.90
51637;DHT22;37713;53.254;6.460;2023-05-07T10:16:47;16.20;99.90
51637;DHT22;37713;53.254;6.460;2023-05-07T10:19:14;16.30;99.90
51637;DHT22;37713;53.254;6.460;2023-05-07T10:21:44;16.50;99.90
51637;DHT22;37713;53.254;6.460;2023-05-07T10:24:33;16.80;99.90
51637;DHT22;37713;53.254;6.460;2023-05-07T10:27:12;16.80;99.90
51637;DHT22;37713;53.254;6.460;2023-05-07T10:29:50;16.90;99.90
51637;DHT22;37713;53.254;6.460;2023-05-07T10:32:42;17.00;99.90
51637;DHT22;37713;53.254;6.460;2023-05-07T10:35:16;16.90;99.90
51637;DHT22;37713;53.254;6.460;2023-05-07T10:37:43;16.90;99.90
51637;DHT22;37713;53.254;6.460;2023-05-07T10:40:10;16.80;99.90
51637;DHT22;37713;53.254;6.460;2023-05-07T10:42:37;16.80;99.90
51637;DHT22;37713;53.254;6.460;2023-05-07T10:45:13;16.80;99.90
51637;DHT22;37713;53.254;6.460;2023-05-07T10:48:17;16.70;99.90
51637;DHT22;37713;53.254;6.460;2023-05-07T10:50:43;16.60;99.90
51637;DHT22;37713;53.254;6.460;2023-05-07T10:56:23;16.60;99.90
51637;DHT22;37713;53.254;6.460;2023-05-07T10:58:37;16.60;99.90
51637;DHT22;37713;53.254;6.460;2023-05-07T11:01:03;16.70;99.90
51637;DHT22;37713;53.254;6.460;2023-05-07T11:03:29;16.80;99.90
51637;DHT22;37713;53.254;6.460;2023-05-07T11:06:13;16.90;99.90
51637;DHT22;37713;53.254;6.460;2023-05-07T11:11:44;17.10;99.90
51637;DHT22;37713;53.254;6.460;2023-05-07T11:14:10;17.20;99.90
51637;DHT22;37713;53.254;6.460;2023-05-07T11:16:36;17.20;99.90
51637;DHT22;37713;53.254;6.460;2023-05-07T11:19:03;17.40;99.90
51637;DHT22;37713;53.254;6.460;2023-05-07T11:21:42;17.40;99.90
51637;DHT22;37713;53.254;6.460;2023-05-07T11:24:09;17.40;99.90
51637;DHT22;37713;53.254;6.460;2023-05-07T11:26:42;17.50;99.90
51637;DHT22;37713;53.254;6.460;2023-05-07T11:29:18;17.50;99.90
51637;DHT22;37713;53.254;6.460;2023-05-07T11:31:51;17.70;99.90
51637;DHT22;37713;53.254;6.460;2023-05-07T11:34:25;17.70;99.90
51637;DHT22;37713;53.254;6.460;2023-05-07T11:36:51;17.70;99.90
51637;DHT22;37713;53.254;6.460;2023-05-07T11:41:50;17.70;99.90
51637;DHT22;37713;53.254;6.460;2023-05-07T11:44:16;17.80;99.90
51637;DHT22;37713;53.254;6.460;2023-05-07T11:46:45;17.90;99.90
51637;DHT22;37713;53.254;6.460;2023-05-07T11:49:11;18.00;99.90
51637;DHT22;37713;53.254;6.460;2023-05-07T11:51:37;18.00;99.90
51637;DHT22;37713;53.254;6.460;2023-05-07T11:54:04;18.20;99.90
51637;DHT22;37713;53.254;6.460;2023-05-07T11:56:34;18.10;99.90
51637;DHT22;37713;53.254;6.460;2023-05-07T11:59:00;17.90;99.90
51637;DHT22;37713;53.254;6.460;2023-05-07T12:01:26;17.90;99.90
51637;DHT22;37713;53.254;6.460;2023-05-07T12:03:52;18.00;99.90
51637;DHT22;37713;53.254;6.460;2023-05-07T12:06:18;18.20;99.90
51637;DHT22;37713;53.254;6.460;2023-05-07T12:08:45;18.30;99.90
51637;DHT22;37713;53.254;6.460;2023-05-07T12:11:37;18.30;99.90
51637;DHT22;37713;53.254;6.460;2023-05-07T12:14:05;18.30;99.90
51637;DHT22;37713;53.254;6.460;2023-05-07T12:16:31;18.30;99.90
51637;DHT22;37713;53.254;6.460;2023-05-07T12:18:58;18.30;99.90
51637;DHT22;37713;53.254;6.460;2023-05-07T12:21:24;18.40;99.90
51637;DHT22;37713;53.254;6.460;2023-05-07T12:23:50;18.60;99.90
51637;DHT22;37713;53.254;6.460;2023-05-07T12:26:16;18.80;99.90
51637;DHT22;37713;53.254;6.460;2023-05-07T12:28:42;19.00;99.90
51637;DHT22;37713;53.254;6.460;2023-05-07T12:31:08;19.10;99.90
51637;DHT22;37713;53.254;6.460;2023-05-07T12:33:35;19.20;99.90
51637;DHT22;37713;53.254;6.460;2023-05-07T12:36:05;19.40;99.90
51637;DHT22;37713;53.254;6.460;2023-05-07T12:38:35;19.50;99.90
51637;DHT22;37713;53.254;6.460;2023-05-07T12:41:02;19.60;99.90
51637;DHT22;37713;53.254;6.460;2023-05-07T12:43:29;19.70;99.90
51637;DHT22;37713;53.254;6.460;2023-05-07T12:46:01;19.50;99.90
51637;DHT22;37713;53.254;6.460;2023-05-07T12:48:27;19.50;99.90
51637;DHT22;37713;53.254;6.460;2023-05-07T12:50:54;19.40;99.90
51637;DHT22;37713;53.254;6.460;2023-05-07T12:53:22;19.40;99.90
51637;DHT22;37713;53.254;6.460;2023-05-07T12:55:51;19.20;99.90
51637;DHT22;37713;53.254;6.460;2023-05-07T12:58:30;19.10;99.90
51637;DHT22;37713;53.254;6.460;2023-05-07T13:00:58;19.10;99.90
51637;DHT22;37713;53.254;6.460;2023-05-07T13:03:35;19.00;99.90
51637;DHT22;37713;53.254;6.460;2023-05-07T13:06:09;19.10;99.90
51637;DHT22;37713;53.254;6.460;2023-05-07T13:08:40;19.20;99.90
51637;DHT22;37713;53.254;6.460;2023-05-07T13:11:08;19.30;99.90
51637;DHT22;37713;53.254;6.460;2023-05-07T13:13:37;19.50;99.90
51637;DHT22;37713;53.254;6.460;2023-05-07T13:16:05;19.70;99.90
51637;DHT22;37713;53.254;6.460;2023-05-07T13:18:32;19.90;99.90
51637;DHT22;37713;53.254;6.460;2023-05-07T13:20:59;20.00;99.90
51637;DHT22;37713;53.254;6.460;2023-05-07T13:23:26;20.00;99.90
51637;DHT22;37713;53.254;6.460;2023-05-07T13:25:52;20.20;99.90
51637;DHT22;37713;53.254;6.460;2023-05-07T13:28:22;20.30;99.90
51637;DHT22;37713;53.254;6.460;2023-05-07T13:30:48;20.30;99.90
51637;DHT22;37713;53.254;6.460;2023-05-07T13:33:14;20.30;99.90
51637;DHT22;37713;53.254;6.460;2023-05-07T13:35:41;20.40;99.90
51637;DHT22;37713;53.254;6.460;2023-05-07T13:38:07;20.40;99.90
51637;DHT22;37713;53.254;6.460;2023-05-07T13:40:33;20.30;99.90
51637;DHT22;37713;53.254;6.460;2023-05-07T13:42:59;20.30;99.90
51637;DHT22;37713;53.254;6.460;2023-05-07T13:45:28;20.20;99.90
51637;DHT22;37713;53.254;6.460;2023-05-07T13:47:55;20.10;99.90
51637;DHT22;37713;53.254;6.460;2023-05-07T13:50:21;20.10;99.90
51637;DHT22;37713;53.254;6.460;2023-05-07T13:52:47;20.10;99.90
51637;DHT22;37713;53.254;6.460;2023-05-07T13:55:20;20.10;99.90
51637;DHT22;37713;53.254;6.460;2023-05-07T13:57:47;20.10;99.90
51637;DHT22;37713;53.254;6.460;2023-05-07T14:00:14;20.10;99.90
51637;DHT22;37713;53.254;6.460;2023-05-07T14:02:41;20.10;99.90
51637;DHT22;37713;53.254;6.460;2023-05-07T14:05:07;20.20;99.90
51637;DHT22;37713;53.254;6.460;2023-05-07T14:07:34;20.30;99.90
51637;DHT22;37713;53.254;6.460;2023-05-07T14:10:01;20.40;99.90
51637;DHT22;37713;53.254;6.460;2023-05-07T14:12:26;20.50;99.90
51637;DHT22;37713;53.254;6.460;2023-05-07T14:14:52;20.50;99.90
51637;DHT22;37713;53.254;6.460;2023-05-07T14:17:18;20.40;99.90
51637;DHT22;37713;53.254;6.460;2023-05-07T14:19:45;20.40;99.90
51637;DHT22;37713;53.254;6.460;2023-05-07T14:22:12;20.40;99.90
51637;DHT22;37713;53.254;6.460;2023-05-07T14:24:38;20.40;99.90
51637;DHT22;37713;53.254;6.460;2023-05-07T14:27:05;20.40;99.90
51637;DHT22;37713;53.254;6.460;2023-05-07T14:29:31;20.50;99.90
51637;DHT22;37713;53.254;6.460;2023-05-07T14:31:57;20.40;99.90
51637;DHT22;37713;53.254;6.460;2023-05-07T14:34:23;20.50;99.90
51637;DHT22;37713;53.254;6.460;2023-05-07T14:36:48;20.60;99.90
51637;DHT22;37713;53.254;6.460;2023-05-07T14:39:14;20.60;99.90
51637;DHT22;37713;53.254;6.460;2023-05-07T14:41:40;20.70;99.90
51637;DHT22;37713;53.254;6.460;2023-05-07T14:44:06;20.70;99.90
51637;DHT22;37713;53.254;6.460;2023-05-07T14:46:32;20.70;99.90
51637;DHT22;37713;53.254;6.460;2023-05-07T14:48:58;20.70;99.90
51637;DHT22;37713;53.254;6.460;2023-05-07T14:51:23;20.80;99.90
51637;DHT22;37713;53.254;6.460;2023-05-07T14:53:50;20.80;99.90
51637;DHT22;37713;53.254;6.460;2023-05-07T14:56:16;20.80;99.90
51637;DHT22;37713;53.254;6.460;2023-05-07T14:58:43;20.80;99.90
51637;DHT22;37713;53.254;6.460;2023-05-07T15:01:09;20.90;99.90
51637;DHT22;37713;53.254;6.460;2023-05-07T15:03:38;21.00;99.90
51637;DHT22;37713;53.254;6.460;2023-05-07T15:06:04;21.10;99.90
51637;DHT22;37713;53.254;6.460;2023-05-07T15:08:30;21.10;99.90
51637;DHT22;37713;53.254;6.460;2023-05-07T15:10:56;21.10;99.90
51637;DHT22;37713;53.254;6.460;2023-05-07T15:13:22;21.10;99.90
51637;DHT22;37713;53.254;6.460;2023-05-07T15:15:48;21.00;99.90
51637;DHT22;37713;53.254;6.460;2023-05-07T15:18:15;21.00;99.90
51637;DHT22;37713;53.254;6.460;2023-05-07T15:20:41;20.90;99.90
51637;DHT22;37713;53.254;6.460;2023-05-07T15:23:07;20.80;99.90
51637;DHT22;37713;53.254;6.460;2023-05-07T15:25:39;20.90;99.90
51637;DHT22;37713;53.254;6.460;2023-05-07T15:28:05;20.90;99.90
51637;DHT22;37713;53.254;6.460;2023-05-07T15:30:31;20.90;99.90
51637;DHT22;37713;53.254;6.460;2023-05-07T15:32:57;20.90;99.90
51637;DHT22;37713;53.254;6.460;2023-05-07T15:35:23;20.90;99.90
51637;DHT22;37713;53.254;6.460;2023-05-07T15:37:49;20.80;99.90